createdAt,value
2018-03-21T00:01:07.977Z,92.80
2018-03-21T00:03:37.099Z,92.80
2018-03-21T00:06:06.218Z,92.90
2018-03-21T00:08:35.510Z,92.60
2018-03-21T00:11:04.603Z,92.60
2018-03-21T00:13:33.988Z,92.50
2018-03-21T00:16:03.158Z,92.90
2018-03-21T00:18:33.018Z,92.80
2018-03-21T00:21:02.381Z,92.80
2018-03-21T00:23:33.734Z,92.70
2018-03-21T00:26:03.728Z,92.70
2018-03-21T00:28:33.036Z,92.70
2018-03-21T00:31:03.440Z,92.70
2018-03-21T00:33:33.015Z,92.70
2018-03-21T00:36:02.979Z,93.00
2018-03-21T00:38:32.502Z,92.70
2018-03-21T00:41:02.167Z,92.70
2018-03-21T00:43:31.789Z,92.60
2018-03-21T00:46:02.056Z,92.60
2018-03-21T00:48:33.676Z,92.50
2018-03-21T00:51:03.904Z,92.50
2018-03-21T00:53:33.846Z,92.60
2018-03-21T00:56:02.942Z,92.50
2018-03-21T00:58:32.785Z,92.30
2018-03-21T01:01:02.581Z,92.30
2018-03-21T01:03:31.736Z,92.30
2018-03-21T01:06:01.565Z,92.10
2018-03-21T01:08:31.861Z,91.90
2018-03-21T01:11:03.211Z,92.10
2018-03-21T01:13:33.043Z,92.10
2018-03-21T01:16:04.014Z,92.00
2018-03-21T01:18:33.550Z,92.00
2018-03-21T01:21:02.822Z,91.90
2018-03-21T01:23:33.061Z,91.80
2018-03-21T01:26:02.213Z,91.70
2018-03-21T01:28:32.200Z,91.90
2018-03-21T01:31:02.287Z,91.80
2018-03-21T01:33:30.835Z,91.90
2018-03-21T01:36:00.191Z,91.70
2018-03-21T01:38:29.276Z,91.80
2018-03-21T01:40:58.495Z,91.90
2018-03-21T01:43:28.115Z,91.80
2018-03-21T01:45:58.601Z,91.80
2018-03-21T01:48:28.620Z,91.80
2018-03-21T01:50:57.195Z,91.90
2018-03-21T01:53:27.014Z,91.90
2018-03-21T01:55:56.100Z,91.80
2018-03-21T01:58:24.603Z,91.70
2018-03-21T02:00:53.044Z,91.60
2018-03-21T02:03:21.766Z,91.50
2018-03-21T02:05:50.612Z,91.90
2018-03-21T02:08:19.282Z,91.70
2018-03-21T02:10:48.336Z,91.90
2018-03-21T02:13:16.908Z,91.90
2018-03-21T02:15:46.611Z,91.80
2018-03-21T02:18:15.090Z,91.90
2018-03-21T02:20:43.856Z,91.70
2018-03-21T02:23:12.339Z,91.50
2018-03-21T02:25:41.135Z,91.70
2018-03-21T02:28:09.489Z,91.80
2018-03-21T02:30:38.253Z,91.90
2018-03-21T02:33:06.657Z,92.10
2018-03-21T02:35:34.922Z,92.20
2018-03-21T02:38:03.407Z,92.30
2018-03-21T02:40:32.155Z,92.40
2018-03-21T02:43:00.696Z,92.30
2018-03-21T02:45:29.372Z,92.30
2018-03-21T02:47:58.072Z,92.10
2018-03-21T02:50:26.549Z,92.00
2018-03-21T02:52:55.323Z,91.80
2018-03-21T02:55:24.013Z,91.80
2018-03-21T02:57:52.853Z,91.60
2018-03-21T03:00:21.562Z,91.50
2018-03-21T03:02:51.536Z,91.60
2018-03-21T03:05:20.136Z,91.50
2018-03-21T03:07:49.389Z,91.60
2018-03-21T03:10:17.952Z,91.60
2018-03-21T03:12:46.668Z,91.50
2018-03-21T03:15:15.231Z,91.50
2018-03-21T03:17:44.645Z,91.30
2018-03-21T03:20:13.254Z,91.30
2018-03-21T03:22:41.785Z,91.30
2018-03-21T03:25:10.618Z,91.10
2018-03-21T03:27:39.217Z,91.00
2018-03-21T03:30:07.879Z,90.90
2018-03-21T03:32:36.340Z,91.00
2018-03-21T03:35:04.723Z,91.00
2018-03-21T03:37:33.530Z,90.80
2018-03-21T03:40:02.007Z,90.80
2018-03-21T03:42:30.781Z,90.90
2018-03-21T03:44:59.160Z,90.90
2018-03-21T03:47:27.413Z,91.00
2018-03-21T03:49:56.690Z,91.00
2018-03-21T03:52:25.843Z,91.00
2018-03-21T03:54:54.683Z,91.20
2018-03-21T03:57:23.079Z,91.00
2018-03-21T03:59:51.337Z,91.00
2018-03-21T04:02:20.582Z,90.90
2018-03-21T04:04:50.079Z,90.90
2018-03-21T04:07:18.871Z,90.90
2018-03-21T04:09:48.322Z,91.00
2018-03-21T04:12:17.373Z,91.00
2018-03-21T04:14:45.833Z,91.00
2018-03-21T04:17:14.511Z,90.90
2018-03-21T04:19:43.158Z,90.90
2018-03-21T04:22:11.690Z,90.90
2018-03-21T04:24:40.234Z,91.00
2018-03-21T04:27:09.528Z,90.80
2018-03-21T04:29:38.864Z,90.60
2018-03-21T04:32:07.120Z,90.60
2018-03-21T04:34:36.533Z,90.80
2018-03-21T04:37:05.083Z,90.80
2018-03-21T04:39:33.867Z,90.80
2018-03-21T04:42:05.627Z,90.80
2018-03-21T04:44:36.156Z,90.80
2018-03-21T04:47:05.403Z,90.80
2018-03-21T04:49:33.656Z,90.90
2018-03-21T04:52:03.104Z,90.90
2018-03-21T04:54:31.886Z,90.80
2018-03-21T04:57:00.261Z,90.80
2018-03-21T04:59:29.300Z,90.90
2018-03-21T05:02:00.016Z,90.70
2018-03-21T05:04:30.257Z,90.70
2018-03-21T05:06:59.589Z,90.60
2018-03-21T05:09:27.985Z,90.60
2018-03-21T05:11:56.727Z,91.00
2018-03-21T05:14:26.280Z,90.60
2018-03-21T05:16:55.660Z,90.90
2018-03-21T05:19:24.144Z,90.70
2018-03-21T05:21:53.379Z,90.60
2018-03-21T05:24:21.912Z,90.60
2018-03-21T05:26:51.305Z,90.60
2018-03-21T05:29:20.747Z,90.50
2018-03-21T05:31:49.496Z,90.50
2018-03-21T05:34:19.501Z,90.40
2018-03-21T05:36:49.875Z,90.40
2018-03-21T05:39:19.509Z,90.40
2018-03-21T05:41:48.682Z,90.40
2018-03-21T05:44:18.105Z,90.50
2018-03-21T05:46:47.523Z,90.40
2018-03-21T05:49:16.856Z,90.30
2018-03-21T05:51:45.578Z,90.20
2018-03-21T05:54:17.099Z,90.10
2018-03-21T05:56:46.221Z,90.00
2018-03-21T05:59:15.741Z,90.00
2018-03-21T06:01:44.743Z,90.00
2018-03-21T06:04:13.690Z,90.00
2018-03-21T06:06:42.408Z,90.00
2018-03-21T06:09:11.707Z,90.10
2018-03-21T06:11:41.291Z,90.10
2018-03-21T06:14:10.514Z,90.30
2018-03-21T06:16:39.805Z,90.30
2018-03-21T06:19:09.037Z,90.30
2018-03-21T06:21:38.762Z,90.00
2018-03-21T06:24:08.056Z,90.00
2018-03-21T06:26:38.108Z,90.10
2018-03-21T06:29:07.176Z,90.20
2018-03-21T06:31:37.035Z,89.80
2018-03-21T06:34:07.143Z,88.90
2018-03-21T06:36:36.224Z,88.90
2018-03-21T06:39:05.440Z,88.20
2018-03-21T06:41:35.074Z,87.60
2018-03-21T06:44:04.431Z,87.60
2018-03-21T06:46:36.235Z,87.40
2018-03-21T06:49:05.404Z,87.60
2018-03-21T06:51:36.839Z,87.90
2018-03-21T06:54:06.167Z,87.50
2018-03-21T06:56:36.146Z,88.10
2018-03-21T06:59:05.113Z,88.00
2018-03-21T07:01:35.703Z,87.30
2018-03-21T07:04:04.971Z,87.10
2018-03-21T07:06:35.072Z,86.20
2018-03-21T07:09:05.719Z,85.30
2018-03-21T07:11:35.591Z,84.90
2018-03-21T07:15:19.204Z,85.40
2018-03-21T07:17:49.278Z,85.50
2018-03-21T07:20:18.766Z,85.00
2018-03-21T07:22:49.413Z,85.40
2018-03-21T07:25:18.810Z,85.30
2018-03-21T07:27:48.993Z,84.30
2018-03-21T07:30:18.843Z,84.10
2018-03-21T07:32:48.042Z,81.70
2018-03-21T07:35:17.304Z,77.50
2018-03-21T07:37:47.458Z,74.70
2018-03-21T07:40:17.278Z,67.60
2018-03-21T07:42:46.765Z,67.60
2018-03-21T07:45:17.183Z,68.50
2018-03-21T07:47:47.279Z,67.60
2018-03-21T07:50:17.368Z,64.00
2018-03-21T07:52:46.378Z,62.30
2018-03-21T07:55:15.695Z,61.40
2018-03-21T07:57:45.437Z,59.20
2018-03-21T08:00:14.759Z,58.10
2018-03-21T08:02:44.328Z,61.10
2018-03-21T08:05:14.293Z,62.20
2018-03-21T08:07:43.420Z,62.20
2018-03-21T08:10:12.634Z,60.50
2018-03-21T08:12:42.768Z,61.10
2018-03-21T08:15:12.645Z,59.80
2018-03-21T08:17:42.304Z,59.70
2018-03-21T08:20:11.531Z,59.40
2018-03-21T08:22:40.611Z,58.20
2018-03-21T08:25:10.007Z,60.60
2018-03-21T08:27:39.417Z,59.20
2018-03-21T08:30:09.429Z,61.50
2018-03-21T08:32:39.225Z,61.30
2018-03-21T08:35:10.788Z,61.60
2018-03-21T08:37:44.045Z,61.40
2018-03-21T08:40:13.878Z,60.70
2018-03-21T08:42:43.122Z,61.50
2018-03-21T08:45:12.542Z,59.40
2018-03-21T08:47:41.738Z,59.20
2018-03-21T08:50:11.481Z,59.00
2018-03-21T08:52:40.365Z,59.40
2018-03-21T08:55:09.543Z,57.50
2018-03-21T08:57:39.719Z,58.10
2018-03-21T09:00:10.529Z,58.10
2018-03-21T09:02:40.086Z,59.70
2018-03-21T09:05:10.470Z,59.50
2018-03-21T09:07:39.767Z,61.90
2018-03-21T09:10:08.876Z,64.10
2018-03-21T09:12:38.123Z,62.60
2018-03-21T09:15:07.555Z,62.90
2018-03-21T09:17:37.884Z,68.40
2018-03-21T09:20:07.257Z,72.30
2018-03-21T09:22:36.468Z,73.90
2018-03-21T09:25:06.466Z,75.40
2018-03-21T09:27:35.786Z,76.10
2018-03-21T09:30:06.915Z,76.50
2018-03-21T09:32:36.026Z,76.50
2018-03-21T09:35:05.760Z,76.20
2018-03-21T09:37:35.599Z,77.10
2018-03-21T09:40:04.799Z,76.60
2018-03-21T09:42:33.898Z,75.90
2018-03-21T09:45:03.026Z,76.70
2018-03-21T09:47:31.889Z,77.60
2018-03-21T09:50:00.928Z,75.60
2018-03-21T09:52:30.985Z,76.20
2018-03-21T09:55:00.295Z,76.40
2018-03-21T09:57:29.333Z,77.00
2018-03-21T09:59:58.298Z,75.90
2018-03-21T10:02:27.966Z,75.30
2018-03-21T10:04:57.388Z,75.60
2018-03-21T10:07:26.593Z,76.50
2018-03-21T10:09:56.285Z,74.10
2018-03-21T10:12:25.354Z,73.90
2018-03-21T10:14:55.018Z,74.70
2018-03-21T10:17:24.019Z,74.70
2018-03-21T10:19:53.779Z,73.20
2018-03-21T10:22:23.063Z,73.10
2018-03-21T10:24:52.430Z,72.90
2018-03-21T10:27:22.212Z,72.60
2018-03-21T10:29:51.831Z,72.50
2018-03-21T10:32:21.073Z,73.40
2018-03-21T10:34:50.048Z,72.10
2018-03-21T10:37:19.062Z,71.40
2018-03-21T10:39:48.713Z,72.00
2018-03-21T10:42:17.865Z,71.50
2018-03-21T10:44:47.406Z,69.10
2018-03-21T10:47:17.595Z,69.40
2018-03-21T10:49:46.961Z,70.20
2018-03-21T10:52:16.839Z,68.00
2018-03-21T10:54:47.113Z,67.90
2018-03-21T10:57:16.490Z,67.50
2018-03-21T10:59:47.611Z,67.60
2018-03-21T11:02:17.268Z,67.60
2018-03-21T11:04:46.277Z,66.20
2018-03-21T11:07:15.474Z,65.00
2018-03-21T11:09:44.604Z,64.10
2018-03-21T11:12:13.619Z,62.80
2018-03-21T11:14:42.530Z,63.80
2018-03-21T11:17:11.572Z,64.30
2018-03-21T11:19:40.686Z,64.70
2018-03-21T11:22:10.389Z,64.00
2018-03-21T11:24:39.738Z,63.70
2018-03-21T11:27:09.646Z,61.30
2018-03-21T11:29:40.193Z,61.20
2018-03-21T11:32:09.565Z,62.40
2018-03-21T11:34:39.431Z,63.20
2018-03-21T11:37:08.513Z,63.20
2018-03-21T11:39:37.585Z,61.40
2018-03-21T11:42:06.815Z,62.40
2018-03-21T11:44:36.155Z,63.10
2018-03-21T11:47:05.506Z,63.70
2018-03-21T11:49:34.696Z,64.00
2018-03-21T11:52:04.493Z,63.80
2018-03-21T11:54:34.775Z,63.50
2018-03-21T11:57:04.841Z,65.80
2018-03-21T11:59:33.827Z,65.60
2018-03-21T12:02:02.918Z,65.80
2018-03-21T12:04:33.132Z,63.60
2018-03-21T12:07:03.049Z,63.60
2018-03-21T12:09:32.234Z,63.00
2018-03-21T12:12:01.983Z,61.50
2018-03-21T12:14:30.900Z,61.40
2018-03-21T12:16:59.784Z,61.10
2018-03-21T12:19:28.618Z,62.10
2018-03-21T12:21:58.713Z,60.50
2018-03-21T12:24:27.554Z,60.50
2018-03-21T12:26:56.531Z,61.00
2018-03-21T12:29:25.259Z,61.70
2018-03-21T12:31:53.974Z,59.50
2018-03-21T12:34:23.062Z,59.30
2018-03-21T12:36:51.865Z,61.90
2018-03-21T12:39:21.583Z,62.00
2018-03-21T12:41:51.063Z,61.90
2018-03-21T12:44:19.991Z,62.30
2018-03-21T12:46:48.824Z,61.90
2018-03-21T12:49:17.875Z,63.30
2018-03-21T12:51:46.851Z,62.30
2018-03-21T12:54:16.732Z,62.10
2018-03-21T12:56:46.901Z,62.10
2018-03-21T12:59:16.185Z,60.50
2018-03-21T13:01:46.574Z,61.20
2018-03-21T13:04:15.542Z,61.10
2018-03-21T13:06:44.636Z,59.90
2018-03-21T13:09:16.161Z,58.60
2018-03-21T13:11:46.153Z,59.00
2018-03-21T13:14:16.292Z,60.20
2018-03-21T13:16:45.166Z,60.20
2018-03-21T13:19:15.082Z,59.20
2018-03-21T13:21:44.564Z,59.20
2018-03-21T13:24:13.602Z,59.80
2018-03-21T13:26:42.759Z,58.10
2018-03-21T13:29:11.747Z,56.80
2018-03-21T13:31:41.393Z,58.40
2018-03-21T13:34:10.865Z,58.30
2018-03-21T13:36:41.679Z,57.70
2018-03-21T13:39:10.900Z,57.70
2018-03-21T13:41:40.231Z,57.70
2018-03-21T13:44:09.419Z,57.10
2018-03-21T13:46:38.256Z,57.10
2018-03-21T13:49:08.457Z,57.00
2018-03-21T13:51:37.723Z,56.30
2018-03-21T13:54:07.188Z,56.00
2018-03-21T13:56:35.768Z,55.90
2018-03-21T13:59:04.857Z,55.20
2018-03-21T14:01:33.879Z,56.00
2018-03-21T14:04:02.966Z,55.80
2018-03-21T14:06:31.956Z,55.50
2018-03-21T14:09:01.671Z,56.70
2018-03-21T14:11:32.053Z,55.90
2018-03-21T14:14:02.059Z,56.20
2018-03-21T14:16:30.793Z,56.60
2018-03-21T14:18:59.524Z,56.60
2018-03-21T14:21:28.222Z,56.90
2018-03-21T14:23:56.942Z,57.20
2018-03-21T14:26:25.788Z,55.60
2018-03-21T14:28:54.621Z,56.00
2018-03-21T14:31:24.678Z,56.00
2018-03-21T14:33:54.234Z,54.80
2018-03-21T14:36:23.064Z,54.70
2018-03-21T14:38:52.700Z,56.10
2018-03-21T14:41:21.599Z,56.10
2018-03-21T14:43:50.433Z,56.60
2018-03-21T14:46:19.178Z,56.00
2018-03-21T14:48:48.151Z,56.00
2018-03-21T14:51:17.187Z,55.20
2018-03-21T14:53:46.135Z,56.20
2018-03-21T14:56:14.985Z,54.50
2018-03-21T14:58:43.848Z,54.70
2018-03-21T15:01:13.702Z,54.60
2018-03-21T15:03:43.031Z,54.50
2018-03-21T15:06:12.982Z,54.30
2018-03-21T15:08:41.748Z,54.30
2018-03-21T15:11:11.216Z,54.50
2018-03-21T15:13:41.134Z,54.30
2018-03-21T15:16:10.242Z,54.80
2018-03-21T15:18:38.943Z,54.10
2018-03-21T15:21:07.755Z,53.90
2018-03-21T15:23:36.686Z,54.60
2018-03-21T15:26:06.078Z,54.30
2018-03-21T15:28:36.123Z,54.40
2018-03-21T15:31:05.099Z,54.40
2018-03-21T15:33:34.090Z,53.80
2018-03-21T15:36:03.972Z,53.10
2018-03-21T15:38:32.660Z,53.10
2018-03-21T15:41:01.543Z,53.60
2018-03-21T15:43:30.961Z,53.50
2018-03-21T15:46:00.573Z,52.80
2018-03-21T15:48:30.361Z,53.90
2018-03-21T15:50:59.215Z,53.90
2018-03-21T15:53:28.218Z,54.10
2018-03-21T15:55:57.212Z,54.50
2018-03-21T15:58:26.332Z,54.90
2018-03-21T16:00:55.929Z,54.90
2018-03-21T16:03:24.994Z,54.80
2018-03-21T16:05:53.893Z,54.90
2018-03-21T16:08:24.676Z,55.20
2018-03-21T16:10:54.297Z,54.60
2018-03-21T16:13:24.146Z,53.90
2018-03-21T16:15:53.669Z,53.90
2018-03-21T16:18:22.783Z,54.20
2018-03-21T16:20:51.673Z,54.40
2018-03-21T16:23:20.888Z,54.30
2018-03-21T16:25:50.539Z,54.90
2018-03-21T16:28:19.559Z,54.90
2018-03-21T16:30:49.011Z,55.70
2018-03-21T16:33:18.474Z,55.40
2018-03-21T16:35:47.297Z,55.40
2018-03-21T16:38:16.078Z,55.90
2018-03-21T16:40:45.957Z,55.30
2018-03-21T16:43:14.888Z,55.30
2018-03-21T16:45:43.771Z,55.20
2018-03-21T16:48:13.355Z,54.90
2018-03-21T16:50:42.284Z,54.90
2018-03-21T16:53:11.120Z,54.80
2018-03-21T16:55:40.148Z,55.40
2018-03-21T16:58:09.558Z,55.20
2018-03-21T17:00:39.483Z,55.60
2018-03-21T17:03:08.785Z,55.50
2018-03-21T17:05:37.597Z,55.00
2018-03-21T17:08:06.398Z,55.10
2018-03-21T17:10:35.362Z,55.70
2018-03-21T17:13:04.372Z,56.10
2018-03-21T17:15:33.377Z,56.20
2018-03-21T17:18:03.202Z,56.10
2018-03-21T17:20:33.062Z,56.70
2018-03-21T17:23:01.909Z,56.40
2018-03-21T17:25:30.826Z,56.10
2018-03-21T17:28:00.398Z,57.00
2018-03-21T17:30:29.228Z,57.00
2018-03-21T17:32:58.809Z,57.20
2018-03-21T17:35:27.557Z,57.20
2018-03-21T17:37:56.316Z,57.60
2018-03-21T17:40:25.058Z,58.40
2018-03-21T17:42:54.009Z,58.70
2018-03-21T17:45:22.757Z,58.90
2018-03-21T17:47:52.106Z,59.50
2018-03-21T17:50:21.401Z,60.00
2018-03-21T17:52:50.317Z,60.40
2018-03-21T17:55:19.869Z,61.30
2018-03-21T17:57:49.610Z,62.50
2018-03-21T18:00:19.391Z,62.50
2018-03-21T18:02:48.264Z,62.80
2018-03-21T18:05:17.103Z,63.50
2018-03-21T18:07:45.939Z,63.70
2018-03-21T18:10:15.430Z,63.50
2018-03-21T18:12:48.243Z,63.70
2018-03-21T18:15:17.212Z,64.00
2018-03-21T18:17:47.979Z,63.80
2018-03-21T18:20:23.951Z,63.90
2018-03-21T18:22:53.312Z,64.10
2018-03-21T18:25:22.681Z,64.60
2018-03-21T18:27:52.207Z,64.50
2018-03-21T18:30:21.920Z,64.80
2018-03-21T18:32:51.402Z,64.70
2018-03-21T18:35:20.287Z,65.00
2018-03-21T18:37:49.152Z,64.90
2018-03-21T18:40:19.482Z,64.50
2018-03-21T18:42:49.555Z,65.00
2018-03-21T18:45:18.729Z,65.00
2018-03-21T18:47:48.082Z,65.20
2018-03-21T18:50:16.845Z,65.10
2018-03-21T18:52:46.761Z,65.40
2018-03-21T18:55:16.437Z,65.60
2018-03-21T18:57:46.742Z,65.60
2018-03-21T19:00:15.984Z,66.10
2018-03-21T19:02:46.123Z,66.30
2018-03-21T19:05:15.937Z,66.50
2018-03-21T19:07:45.034Z,67.10
2018-03-21T19:10:14.827Z,67.70
2018-03-21T19:12:45.154Z,67.80
2018-03-21T19:15:14.066Z,67.70
2018-03-21T19:17:43.241Z,67.80
2018-03-21T19:20:12.960Z,68.20
2018-03-21T19:22:42.695Z,68.40
2018-03-21T19:25:12.186Z,68.40
2018-03-21T19:27:41.291Z,68.40
2018-03-21T19:30:10.127Z,68.50
2018-03-21T19:32:39.000Z,68.80
2018-03-21T19:35:07.991Z,69.20
2018-03-21T19:37:37.029Z,69.50
2018-03-21T19:40:09.971Z,69.90
2018-03-21T19:42:39.037Z,69.90
2018-03-21T19:45:07.981Z,70.20
2018-03-21T19:47:37.206Z,70.10
2018-03-21T19:50:06.296Z,70.20
2018-03-21T19:52:36.061Z,70.60
2018-03-21T19:55:05.275Z,70.90
2018-03-21T19:57:35.117Z,71.30
2018-03-21T20:00:05.306Z,71.30
2018-03-21T20:02:34.966Z,71.60
2018-03-21T20:05:04.525Z,71.60
2018-03-21T20:07:33.486Z,71.30
2018-03-21T20:10:03.071Z,71.50
2018-03-21T20:12:31.802Z,72.10
2018-03-21T20:15:01.482Z,72.70
2018-03-21T20:17:30.824Z,72.10
2018-03-21T20:19:59.588Z,72.60
2018-03-21T20:22:28.344Z,72.60
2018-03-21T20:24:59.648Z,73.00
2018-03-21T20:27:29.206Z,72.80
2018-03-21T20:29:57.900Z,72.70
2018-03-21T20:32:27.185Z,73.20
2018-03-21T20:34:55.921Z,73.50
2018-03-21T20:37:25.515Z,74.40
2018-03-21T20:39:54.219Z,74.40
2018-03-21T20:42:23.893Z,74.10
2018-03-21T20:44:52.919Z,74.00
2018-03-21T20:47:22.439Z,74.30
2018-03-21T20:49:52.021Z,75.00
2018-03-21T20:52:21.807Z,74.90
2018-03-21T20:54:50.743Z,74.70
2018-03-21T20:57:20.096Z,74.70
2018-03-21T20:59:48.873Z,74.60
2018-03-21T21:02:19.411Z,75.30
2018-03-21T21:04:48.076Z,75.30
2018-03-21T21:07:16.793Z,75.50
2018-03-21T21:09:45.928Z,75.50
2018-03-21T21:12:14.746Z,76.10
2018-03-21T21:14:43.761Z,75.90
2018-03-21T21:17:13.730Z,75.90
2018-03-21T21:19:42.493Z,75.90
2018-03-21T21:22:11.306Z,76.00
2018-03-21T21:24:40.362Z,76.70
2018-03-21T21:27:09.589Z,76.00
2018-03-21T21:29:39.131Z,75.60
2018-03-21T21:32:07.957Z,75.60
2018-03-21T21:34:36.726Z,75.40
2018-03-21T21:37:05.994Z,75.80
2018-03-21T21:39:34.714Z,75.90
2018-03-21T21:42:03.825Z,76.40
2018-03-21T21:44:33.835Z,76.20
2018-03-21T21:47:03.698Z,76.20
2018-03-21T21:49:33.213Z,76.40
2018-03-21T21:52:02.233Z,76.40
2018-03-21T21:54:31.568Z,76.40
2018-03-21T21:57:01.751Z,76.00
2018-03-21T21:59:30.666Z,76.00
2018-03-21T22:02:00.042Z,76.10
2018-03-21T22:04:29.116Z,76.30
2018-03-21T22:06:58.050Z,76.40
2018-03-21T22:09:27.560Z,76.70
2018-03-21T22:11:56.427Z,76.90
2018-03-21T22:14:25.446Z,76.60
2018-03-21T22:16:54.456Z,76.60
2018-03-21T22:19:25.184Z,76.30
2018-03-21T22:21:55.351Z,76.20
2018-03-21T22:24:24.806Z,76.20
2018-03-21T22:26:55.131Z,76.50
2018-03-21T22:29:24.753Z,76.50
2018-03-21T22:31:53.532Z,76.50
2018-03-21T22:34:24.430Z,76.30
2018-03-21T22:36:54.892Z,76.40
2018-03-21T22:39:24.209Z,76.70
2018-03-21T22:41:54.836Z,76.80
2018-03-21T22:44:36.509Z,77.20
2018-03-21T22:47:05.911Z,77.40
2018-03-21T22:49:35.689Z,77.00
2018-03-21T22:52:05.474Z,77.00
2018-03-21T22:54:35.069Z,77.20
2018-03-21T22:57:04.833Z,77.50
2018-03-21T22:59:33.752Z,77.50
2018-03-21T23:02:03.384Z,77.60
2018-03-21T23:04:32.276Z,77.20
2018-03-21T23:07:01.693Z,76.80
2018-03-21T23:09:31.869Z,76.90
2018-03-21T23:12:01.356Z,76.80
2018-03-21T23:14:30.968Z,77.00
2018-03-21T23:17:00.709Z,77.40
2018-03-21T23:19:29.496Z,77.40
2018-03-21T23:21:58.335Z,77.50
2018-03-21T23:24:27.453Z,77.60
2018-03-21T23:26:57.113Z,77.60
2018-03-21T23:29:25.984Z,77.60
2018-03-21T23:31:55.137Z,77.50
2018-03-21T23:34:24.060Z,77.90
2018-03-21T23:36:53.306Z,77.90
2018-03-21T23:39:22.093Z,77.90
2018-03-21T23:41:51.111Z,78.00
2018-03-21T23:44:20.150Z,78.10
2018-03-21T23:46:49.783Z,78.20
2018-03-21T23:49:19.566Z,78.20
2018-03-21T23:51:48.343Z,78.00
2018-03-21T23:54:18.669Z,77.80
2018-03-21T23:56:48.011Z,77.90
2018-03-21T23:59:17.087Z,78.00
